createdAt,value
2023-01-19T20:36:56.582Z,24.16
2023-01-19T20:37:06.250Z,24.16
2023-01-19T20:37:16.307Z,24.05
2023-01-19T20:37:26.477Z,23.82
2023-01-19T20:37:36.471Z,23.67
2023-01-19T20:37:46.234Z,23.67
2023-01-19T20:37:56.470Z,23.45
2023-01-19T20:38:06.474Z,23.35
2023-01-19T20:38:16.480Z,23.23
2023-01-19T20:38:26.469Z,23.13
2023-01-19T20:38:36.476Z,23.07
2023-01-19T20:38:46.523Z,23.07
2023-01-19T20:38:56.503Z,22.96
2023-01-19T20:39:06.593Z,22.90
2023-01-19T20:39:16.252Z,22.90
2023-01-19T20:39:26.278Z,22.86
2023-01-19T20:39:36.490Z,22.73
2023-01-19T20:39:46.241Z,22.73
2023-01-19T20:39:56.485Z,22.67
2023-01-19T20:40:06.254Z,22.67
2023-01-19T20:40:16.492Z,22.54
2023-01-19T20:40:26.510Z,22.46
2023-01-19T20:40:36.497Z,22.40
2023-01-19T20:40:46.515Z,22.34
2023-01-19T20:40:56.298Z,22.34
2023-01-19T20:41:06.499Z,22.21
2023-01-19T20:41:16.499Z,22.13
2023-01-19T20:41:26.493Z,22.07
2023-01-19T20:41:36.265Z,22.07
2023-01-19T20:41:46.496Z,21.95
2023-01-19T20:41:56.498Z,21.92
2023-01-19T20:42:06.264Z,21.92
2023-01-19T20:42:16.524Z,21.85
2023-01-19T20:42:26.501Z,21.84
2023-01-19T20:42:36.508Z,21.82
2023-01-19T20:42:46.508Z,21.78
2023-01-19T20:42:56.505Z,21.77
2023-01-19T20:43:06.511Z,21.75
2023-01-19T20:43:16.501Z,21.75
2023-01-19T20:43:26.277Z,21.75
2023-01-19T20:43:36.526Z,21.75
2023-01-19T20:43:46.270Z,21.75
2023-01-19T20:43:56.346Z,21.77
2023-01-19T20:44:06.523Z,21.72
2023-01-19T20:44:16.555Z,21.72
2023-01-19T20:44:26.523Z,21.71
2023-01-19T20:44:36.528Z,21.70
2023-01-19T20:44:46.278Z,21.70
2023-01-19T20:44:56.517Z,21.67
2023-01-19T20:45:06.296Z,21.67
2023-01-19T20:45:16.283Z,21.67
2023-01-19T20:45:26.623Z,21.64
2023-01-19T20:45:36.554Z,21.66
2023-01-19T20:45:46.620Z,21.66
2023-01-19T20:45:56.425Z,21.66
2023-01-19T20:46:06.535Z,21.66
2023-01-19T20:46:16.663Z,21.63
2023-01-19T20:46:26.531Z,21.60
2023-01-19T20:46:36.537Z,21.66
2023-01-19T20:46:46.744Z,21.64
2023-01-19T20:46:56.285Z,21.64
2023-01-19T20:47:06.769Z,21.63
2023-01-19T20:47:16.379Z,21.70
2023-01-19T20:47:26.536Z,21.67
2023-01-19T20:47:36.578Z,21.68
2023-01-19T20:47:46.530Z,21.58
2023-01-19T20:47:56.584Z,21.64
2023-01-19T20:48:06.591Z,21.68
2023-01-19T20:48:16.355Z,21.68
2023-01-19T20:48:26.959Z,21.62
2023-01-19T20:50:26.360Z,28.63
2023-01-19T20:50:43.276Z,28.77
2023-01-19T20:51:02.047Z,28.55
2023-01-19T20:51:12.239Z,28.49
2023-01-19T20:51:28.863Z,27.59
2023-01-19T20:51:38.667Z,26.72
2023-01-19T20:51:48.709Z,26.08
2023-01-19T20:51:58.663Z,25.62
2023-01-19T20:52:08.672Z,25.08
2023-01-19T20:52:18.772Z,24.72
2023-01-19T20:52:28.680Z,24.49
2023-01-19T20:52:38.665Z,24.21
2023-01-19T20:52:48.668Z,23.94
2023-01-19T20:52:58.672Z,23.78
2023-01-19T20:53:08.676Z,23.59
2023-01-19T20:53:18.860Z,23.41
2023-01-19T20:53:28.677Z,23.32
2023-01-19T20:53:38.604Z,23.32
2023-01-19T20:53:48.746Z,22.96
2023-01-19T20:53:58.684Z,22.98
2023-01-19T20:54:09.503Z,22.89
2023-01-19T20:54:18.683Z,22.77
2023-01-19T20:54:28.684Z,22.72
2023-01-19T20:54:38.684Z,22.66
2023-01-19T20:54:48.683Z,22.59
2023-01-19T20:54:58.679Z,22.49
2023-01-19T20:55:08.690Z,22.48
2023-01-19T20:55:18.688Z,22.45
2023-01-19T20:55:28.684Z,22.66
2023-01-19T20:55:38.691Z,22.55
2023-01-19T20:55:48.447Z,22.55
2023-01-19T20:55:58.696Z,22.49
2023-01-19T20:56:14.792Z,22.49
2023-01-19T20:56:24.989Z,22.41
2023-01-19T20:56:34.767Z,22.41
2023-01-19T20:56:48.133Z,25.51
2023-01-19T20:56:58.131Z,24.57
2023-01-19T20:57:08.128Z,24.07
2023-01-19T20:57:17.885Z,24.07
2023-01-19T20:57:27.885Z,23.68
2023-01-19T20:57:38.167Z,22.94
2023-01-19T20:57:48.127Z,22.75
2023-01-19T20:57:57.892Z,22.75
2023-01-19T20:58:08.123Z,22.38
2023-01-19T20:58:17.893Z,22.38
2023-01-19T20:58:28.153Z,22.25
2023-01-19T20:58:38.151Z,22.20
2023-01-19T20:58:48.137Z,22.18
2023-01-19T20:58:58.134Z,22.12
2023-01-19T20:59:08.134Z,22.07
2023-01-19T20:59:18.172Z,22.02
2023-01-19T20:59:28.200Z,21.98
2023-01-19T20:59:38.205Z,22.00
2023-01-19T20:59:48.209Z,22.02
2023-01-19T20:59:58.208Z,21.96
2023-01-19T21:00:08.198Z,21.98
2023-01-19T21:00:17.977Z,21.98
2023-01-19T21:00:28.215Z,21.94
2023-01-19T21:00:38.240Z,21.89
2023-01-19T21:00:48.251Z,21.88
2023-01-19T21:00:58.093Z,21.88
2023-01-19T21:01:08.494Z,21.76
2023-01-19T21:01:18.101Z,21.76
2023-01-19T21:01:28.345Z,21.77
2023-01-19T21:01:38.364Z,21.76
2023-01-19T21:01:48.442Z,21.75
2023-01-19T21:01:58.322Z,21.73
2023-01-19T21:02:08.209Z,21.73
2023-01-19T21:02:18.109Z,21.75
2023-01-19T21:02:28.643Z,21.75
2023-01-19T21:02:38.141Z,21.84
2023-01-19T21:02:48.103Z,21.81
2023-01-19T21:02:58.311Z,21.77
2023-01-19T21:03:08.078Z,21.77
2023-01-19T21:03:18.294Z,21.76
2023-01-19T21:03:28.301Z,21.70
2023-01-19T21:03:38.306Z,21.71
2023-01-19T21:03:48.308Z,21.72
2023-01-19T21:03:58.315Z,21.73
2023-01-19T21:04:08.309Z,21.72
2023-01-19T21:04:18.329Z,21.75
2023-01-19T21:04:28.316Z,21.71
2023-01-19T21:04:38.317Z,21.76
2023-01-19T21:04:48.322Z,21.75
2023-01-19T21:04:58.306Z,21.72
2023-01-19T21:05:08.308Z,21.73
2023-01-19T21:05:18.327Z,21.71
2023-01-19T21:05:28.315Z,21.66
2023-01-19T21:05:38.324Z,21.63
2023-01-19T21:05:48.326Z,21.66
2023-01-19T21:06:04.453Z,21.58
2023-01-19T21:06:41.408Z,21.48
2023-01-19T21:07:02.466Z,21.70
2023-01-19T21:07:26.308Z,21.89
2023-01-19T21:07:36.391Z,21.80
2023-01-19T21:07:46.383Z,21.72
2023-01-19T21:07:56.389Z,21.64
2023-01-19T21:08:06.402Z,21.60
2023-01-19T21:08:16.399Z,21.54
2023-01-19T21:08:26.381Z,21.48
2023-01-19T21:08:36.154Z,21.48
2023-01-19T21:08:46.399Z,21.42
2023-01-19T21:08:56.390Z,21.37
2023-01-19T21:09:06.185Z,21.37
2023-01-19T21:09:16.406Z,21.29
2023-01-19T21:09:26.396Z,21.25
2023-01-19T21:09:36.394Z,21.23
2023-01-19T21:09:46.167Z,21.23
2023-01-19T21:09:56.392Z,21.19
2023-01-19T21:10:06.409Z,21.16
2023-01-19T21:10:16.398Z,21.15
2023-01-19T21:10:26.413Z,21.13
2023-01-19T21:10:36.402Z,21.15
2023-01-19T21:10:46.422Z,21.13
2023-01-19T21:10:56.397Z,21.11
2023-01-19T21:11:06.418Z,21.11
2023-01-19T21:11:16.409Z,21.12
2023-01-19T21:11:26.405Z,21.12
2023-01-19T21:11:36.422Z,21.11
2023-01-19T21:11:46.423Z,21.09
2023-01-19T21:11:57.536Z,21.09
2023-01-19T21:12:06.412Z,21.09
2023-01-19T21:12:16.187Z,21.09
2023-01-19T21:12:26.413Z,21.09
2023-01-19T21:12:36.417Z,21.05
2023-01-19T21:12:46.411Z,21.03
2023-01-19T21:12:56.415Z,21.03
2023-01-19T21:13:06.420Z,21.03
2023-01-19T21:13:16.430Z,21.02
2023-01-19T21:13:26.419Z,21.02
2023-01-19T21:13:36.187Z,21.02
2023-01-19T21:13:46.445Z,21.03
2023-01-19T21:13:56.558Z,21.01
2023-01-19T21:14:06.425Z,20.99
2023-01-19T21:14:16.195Z,20.99
2023-01-19T21:14:26.436Z,20.99
2023-01-19T21:14:36.437Z,21.01
2023-01-19T21:14:46.429Z,21.01
2023-01-19T21:14:56.432Z,21.01
2023-01-19T21:15:06.222Z,21.01
2023-01-19T21:15:16.444Z,20.99
2023-01-19T21:15:26.435Z,20.98
2023-01-19T21:15:36.451Z,20.98
2023-01-19T21:15:46.433Z,20.98
2023-01-19T21:15:56.434Z,20.97
2023-01-19T21:16:06.470Z,20.98
2023-01-19T21:16:16.475Z,20.95
2023-01-19T21:16:26.491Z,21.02
2023-01-19T21:16:36.489Z,21.05
2023-01-19T21:16:46.506Z,21.01
2023-01-19T21:16:56.443Z,20.99
2023-01-19T21:17:06.463Z,21.01
2023-01-19T21:17:16.205Z,21.01
2023-01-19T21:17:26.448Z,20.97
2023-01-19T21:17:36.556Z,20.97
2023-01-19T21:17:46.226Z,20.97
2023-01-19T21:17:56.447Z,20.99
2023-01-19T21:18:06.455Z,21.01
2023-01-19T21:18:16.456Z,21.01
2023-01-19T21:18:26.456Z,20.99
2023-01-19T21:18:36.216Z,20.99
2023-01-19T21:18:46.217Z,21.03
2023-01-19T21:18:56.460Z,20.99
2023-01-19T21:19:06.472Z,20.98
2023-01-19T21:19:16.457Z,20.98
2023-01-19T21:19:26.444Z,20.95
2023-01-19T21:19:36.222Z,20.95
2023-01-19T21:19:46.236Z,20.98
2023-01-19T21:19:56.460Z,20.94
2023-01-19T21:20:06.462Z,20.97
2023-01-19T21:20:16.466Z,20.90
2023-01-19T21:20:26.454Z,20.95
2023-01-19T21:20:36.462Z,20.94
2023-01-19T21:20:46.464Z,20.95
2023-01-19T21:20:56.477Z,20.90
2023-01-19T21:21:08.004Z,20.97
2023-01-19T21:21:29.440Z,20.95
2023-01-19T21:21:31.484Z,20.89
2023-01-19T21:21:36.465Z,20.94
2023-01-19T21:21:46.479Z,20.90
2023-01-19T21:21:56.469Z,20.91
2023-01-19T21:22:06.473Z,20.97
2023-01-19T21:22:16.256Z,20.97
2023-01-19T21:22:29.792Z,20.91
2023-01-19T21:32:27.585Z,19.81
2023-01-19T21:42:36.371Z,19.55
2023-01-19T21:52:46.231Z,19.54
2023-01-19T22:03:03.725Z,19.46
2023-01-19T22:13:10.548Z,19.38
2023-01-19T22:23:20.024Z,19.36
2023-01-19T22:33:29.775Z,19.30
2023-01-19T22:43:39.535Z,19.29
2023-01-19T22:53:49.375Z,19.25
2023-01-19T23:03:57.547Z,19.20
2023-01-19T23:14:07.791Z,19.19
2023-01-19T23:24:17.759Z,19.11
2023-01-19T23:34:27.129Z,19.15
2023-01-19T23:44:36.235Z,19.12
2023-01-19T23:54:45.437Z,19.11
